sensor_id;sensor_type;location;lat;lon;timestamp;P1;durP1;ratioP1;P2;durP2;ratioP2
11346;SDS011;5728;42.722;23.258;2023-05-10T00:00:37;4.10;;;3.70;;
11346;SDS011;5728;42.722;23.258;2023-05-10T00:03:04;3.93;;;3.57;;
11346;SDS011;5728;42.722;23.258;2023-05-10T00:05:30;8.20;;;4.73;;
11346;SDS011;5728;42.722;23.258;2023-05-10T00:07:57;4.83;;;4.20;;
11346;SDS011;5728;42.722;23.258;2023-05-10T00:10:24;4.80;;;4.27;;
11346;SDS011;5728;42.722;23.258;2023-05-10T00:12:51;4.90;;;4.40;;
11346;SDS011;5728;42.722;23.258;2023-05-10T00:15:19;5.87;;;5.10;;
11346;SDS011;5728;42.722;23.258;2023-05-10T00:17:46;5.93;;;5.10;;
11346;SDS011;5728;42.722;23.258;2023-05-10T00:20:13;5.70;;;5.10;;
11346;SDS011;5728;42.722;23.258;2023-05-10T00:22:39;8.57;;;5.77;;
11346;SDS011;5728;42.722;23.258;2023-05-10T00:25:07;9.37;;;6.13;;
11346;SDS011;5728;42.722;23.258;2023-05-10T00:27:34;6.47;;;5.73;;
11346;SDS011;5728;42.722;23.258;2023-05-10T00:30:01;7.93;;;6.70;;
11346;SDS011;5728;42.722;23.258;2023-05-10T00:32:29;8.50;;;6.87;;
11346;SDS011;5728;42.722;23.258;2023-05-10T00:34:56;7.30;;;6.27;;
11346;SDS011;5728;42.722;23.258;2023-05-10T00:37:22;7.80;;;6.53;;
11346;SDS011;5728;42.722;23.258;2023-05-10T00:39:49;7.37;;;6.30;;
11346;SDS011;5728;42.722;23.258;2023-05-10T00:42:16;9.53;;;6.77;;
11346;SDS011;5728;42.722;23.258;2023-05-10T00:44:43;8.33;;;7.30;;
11346;SDS011;5728;42.722;23.258;2023-05-10T00:47:09;7.73;;;6.57;;
11346;SDS011;5728;42.722;23.258;2023-05-10T00:49:38;6.60;;;5.97;;
11346;SDS011;5728;42.722;23.258;2023-05-10T00:52:05;7.93;;;7.03;;
11346;SDS011;5728;42.722;23.258;2023-05-10T00:54:32;8.43;;;6.53;;
11346;SDS011;5728;42.722;23.258;2023-05-10T00:56:59;9.33;;;6.60;;
11346;SDS011;5728;42.722;23.258;2023-05-10T00:59:26;11.33;;;7.57;;
11346;SDS011;5728;42.722;23.258;2023-05-10T01:01:53;8.07;;;7.30;;
11346;SDS011;5728;42.722;23.258;2023-05-10T01:04:20;7.97;;;6.73;;
11346;SDS011;5728;42.722;23.258;2023-05-10T01:06:52;8.03;;;6.97;;
11346;SDS011;5728;42.722;23.258;2023-05-10T01:09:19;9.10;;;7.60;;
11346;SDS011;5728;42.722;23.258;2023-05-10T01:11:47;9.00;;;7.60;;
11346;SDS011;5728;42.722;23.258;2023-05-10T01:14:15;9.00;;;7.80;;
11346;SDS011;5728;42.722;23.258;2023-05-10T01:16:45;19.73;;;7.87;;
11346;SDS011;5728;42.722;23.258;2023-05-10T01:19:16;8.70;;;7.83;;
11346;SDS011;5728;42.722;23.258;2023-05-10T01:21:48;7.57;;;6.73;;
11346;SDS011;5728;42.722;23.258;2023-05-10T01:24:28;7.97;;;6.90;;
11346;SDS011;5728;42.722;23.258;2023-05-10T01:27:17;8.13;;;7.23;;
11346;SDS011;5728;42.722;23.258;2023-05-10T01:32:55;8.17;;;7.27;;
11346;SDS011;5728;42.722;23.258;2023-05-10T01:35:30;7.57;;;6.77;;
11346;SDS011;5728;42.722;23.258;2023-05-10T01:38:04;9.87;;;8.07;;
11346;SDS011;5728;42.722;23.258;2023-05-10T01:40:39;8.07;;;6.80;;
11346;SDS011;5728;42.722;23.258;2023-05-10T01:43:17;8.23;;;6.93;;
11346;SDS011;5728;42.722;23.258;2023-05-10T01:45:50;7.50;;;6.80;;
11346;SDS011;5728;42.722;23.258;2023-05-10T01:48:30;7.33;;;6.57;;
11346;SDS011;5728;42.722;23.258;2023-05-10T01:50:59;7.03;;;6.33;;
11346;SDS011;5728;42.722;23.258;2023-05-10T01:53:26;6.93;;;6.20;;
11346;SDS011;5728;42.722;23.258;2023-05-10T01:55:54;7.40;;;6.20;;
11346;SDS011;5728;42.722;23.258;2023-05-10T01:58:23;6.93;;;5.60;;
11346;SDS011;5728;42.722;23.258;2023-05-10T02:00:54;7.17;;;6.10;;
11346;SDS011;5728;42.722;23.258;2023-05-10T02:03:24;6.83;;;6.13;;
11346;SDS011;5728;42.722;23.258;2023-05-10T02:05:54;6.47;;;5.87;;
11346;SDS011;5728;42.722;23.258;2023-05-10T02:08:23;5.50;;;5.00;;
11346;SDS011;5728;42.722;23.258;2023-05-10T02:10:52;6.93;;;5.90;;
11346;SDS011;5728;42.722;23.258;2023-05-10T02:13:20;5.83;;;5.33;;
11346;SDS011;5728;42.722;23.258;2023-05-10T02:15:49;6.43;;;5.83;;
11346;SDS011;5728;42.722;23.258;2023-05-10T02:18:17;5.70;;;5.20;;
11346;SDS011;5728;42.722;23.258;2023-05-10T02:20:45;5.27;;;4.73;;
11346;SDS011;5728;42.722;23.258;2023-05-10T02:23:14;6.00;;;5.17;;
11346;SDS011;5728;42.722;23.258;2023-05-10T02:25:43;6.33;;;5.67;;
11346;SDS011;5728;42.722;23.258;2023-05-10T02:28:11;6.10;;;5.50;;
11346;SDS011;5728;42.722;23.258;2023-05-10T02:30:40;6.17;;;5.57;;
11346;SDS011;5728;42.722;23.258;2023-05-10T02:33:07;9.53;;;5.60;;
11346;SDS011;5728;42.722;23.258;2023-05-10T02:35:34;5.47;;;4.93;;
11346;SDS011;5728;42.722;23.258;2023-05-10T02:38:02;5.50;;;5.00;;
11346;SDS011;5728;42.722;23.258;2023-05-10T02:40:32;5.47;;;4.93;;
11346;SDS011;5728;42.722;23.258;2023-05-10T02:43:01;6.03;;;4.27;;
11346;SDS011;5728;42.722;23.258;2023-05-10T02:45:31;7.10;;;5.30;;
11346;SDS011;5728;42.722;23.258;2023-05-10T02:47:59;6.33;;;4.60;;
11346;SDS011;5728;42.722;23.258;2023-05-10T02:50:27;5.20;;;4.70;;
11346;SDS011;5728;42.722;23.258;2023-05-10T02:53:01;4.50;;;4.10;;
11346;SDS011;5728;42.722;23.258;2023-05-10T02:55:35;4.70;;;4.30;;
11346;SDS011;5728;42.722;23.258;2023-05-10T02:58:05;5.67;;;4.60;;
11346;SDS011;5728;42.722;23.258;2023-05-10T03:00:32;6.30;;;4.70;;
11346;SDS011;5728;42.722;23.258;2023-05-10T03:03:00;6.43;;;4.83;;
11346;SDS011;5728;42.722;23.258;2023-05-10T03:05:27;6.07;;;4.57;;
11346;SDS011;5728;42.722;23.258;2023-05-10T03:07:54;7.73;;;4.83;;
11346;SDS011;5728;42.722;23.258;2023-05-10T03:10:21;5.70;;;4.77;;
11346;SDS011;5728;42.722;23.258;2023-05-10T03:13:00;4.43;;;3.87;;
11346;SDS011;5728;42.722;23.258;2023-05-10T03:15:36;4.30;;;3.90;;
11346;SDS011;5728;42.722;23.258;2023-05-10T03:18:09;4.17;;;3.67;;
11346;SDS011;5728;42.722;23.258;2023-05-10T03:20:41;4.83;;;4.07;;
11346;SDS011;5728;42.722;23.258;2023-05-10T03:23:11;6.47;;;4.40;;
11346;SDS011;5728;42.722;23.258;2023-05-10T03:25:47;5.97;;;4.80;;
11346;SDS011;5728;42.722;23.258;2023-05-10T03:28:16;5.50;;;4.73;;
11346;SDS011;5728;42.722;23.258;2023-05-10T03:30:44;5.47;;;4.73;;
11346;SDS011;5728;42.722;23.258;2023-05-10T03:33:12;6.23;;;4.57;;
11346;SDS011;5728;42.722;23.258;2023-05-10T03:35:39;9.43;;;5.10;;
11346;SDS011;5728;42.722;23.258;2023-05-10T03:38:06;8.07;;;4.77;;
11346;SDS011;5728;42.722;23.258;2023-05-10T03:40:33;6.30;;;4.53;;
11346;SDS011;5728;42.722;23.258;2023-05-10T03:43:00;6.57;;;4.60;;
11346;SDS011;5728;42.722;23.258;2023-05-10T03:45:28;9.10;;;6.07;;
11346;SDS011;5728;42.722;23.258;2023-05-10T03:47:55;8.40;;;4.90;;
11346;SDS011;5728;42.722;23.258;2023-05-10T03:50:23;5.73;;;4.93;;
11346;SDS011;5728;42.722;23.258;2023-05-10T03:52:49;6.80;;;5.33;;
11346;SDS011;5728;42.722;23.258;2023-05-10T03:55:16;8.03;;;4.40;;
11346;SDS011;5728;42.722;23.258;2023-05-10T03:57:43;6.97;;;5.13;;
11346;SDS011;5728;42.722;23.258;2023-05-10T04:00:10;6.40;;;5.10;;
11346;SDS011;5728;42.722;23.258;2023-05-10T04:02:39;6.27;;;5.37;;
11346;SDS011;5728;42.722;23.258;2023-05-10T04:05:06;8.27;;;5.17;;
11346;SDS011;5728;42.722;23.258;2023-05-10T04:07:33;6.37;;;4.93;;
11346;SDS011;5728;42.722;23.258;2023-05-10T04:09:59;6.70;;;5.13;;
11346;SDS011;5728;42.722;23.258;2023-05-10T04:12:26;7.17;;;5.30;;
11346;SDS011;5728;42.722;23.258;2023-05-10T04:14:53;7.03;;;4.43;;
11346;SDS011;5728;42.722;23.258;2023-05-10T04:17:20;6.43;;;4.63;;
11346;SDS011;5728;42.722;23.258;2023-05-10T04:19:48;6.13;;;5.50;;
11346;SDS011;5728;42.722;23.258;2023-05-10T04:22:18;6.13;;;5.03;;
11346;SDS011;5728;42.722;23.258;2023-05-10T04:24:45;5.20;;;4.70;;
11346;SDS011;5728;42.722;23.258;2023-05-10T04:27:11;7.17;;;4.93;;
11346;SDS011;5728;42.722;23.258;2023-05-10T04:29:38;5.83;;;4.23;;
11346;SDS011;5728;42.722;23.258;2023-05-10T04:32:05;6.67;;;5.30;;
11346;SDS011;5728;42.722;23.258;2023-05-10T04:34:33;9.33;;;4.50;;
11346;SDS011;5728;42.722;23.258;2023-05-10T04:37:01;7.40;;;4.43;;
11346;SDS011;5728;42.722;23.258;2023-05-10T04:39:28;5.90;;;4.80;;
11346;SDS011;5728;42.722;23.258;2023-05-10T04:41:55;5.40;;;4.23;;
11346;SDS011;5728;42.722;23.258;2023-05-10T04:44:21;4.57;;;4.07;;
11346;SDS011;5728;42.722;23.258;2023-05-10T04:46:48;5.63;;;4.97;;
11346;SDS011;5728;42.722;23.258;2023-05-10T04:49:15;7.30;;;4.63;;
11346;SDS011;5728;42.722;23.258;2023-05-10T04:51:41;6.00;;;4.27;;
11346;SDS011;5728;42.722;23.258;2023-05-10T04:54:09;6.23;;;5.33;;
11346;SDS011;5728;42.722;23.258;2023-05-10T04:56:36;6.57;;;5.17;;
11346;SDS011;5728;42.722;23.258;2023-05-10T04:59:03;6.60;;;5.47;;
11346;SDS011;5728;42.722;23.258;2023-05-10T05:01:30;22.53;;;14.90;;
11346;SDS011;5728;42.722;23.258;2023-05-10T05:03:57;21.63;;;13.00;;
11346;SDS011;5728;42.722;23.258;2023-05-10T05:06:24;5.80;;;4.47;;
11346;SDS011;5728;42.722;23.258;2023-05-10T05:08:52;9.67;;;5.53;;
11346;SDS011;5728;42.722;23.258;2023-05-10T05:11:20;10.30;;;5.37;;
11346;SDS011;5728;42.722;23.258;2023-05-10T05:13:47;7.47;;;4.90;;
11346;SDS011;5728;42.722;23.258;2023-05-10T05:16:14;7.20;;;5.80;;
11346;SDS011;5728;42.722;23.258;2023-05-10T05:18:40;6.77;;;5.60;;
11346;SDS011;5728;42.722;23.258;2023-05-10T05:21:13;7.50;;;5.00;;
11346;SDS011;5728;42.722;23.258;2023-05-10T05:23:41;5.50;;;4.90;;
11346;SDS011;5728;42.722;23.258;2023-05-10T05:26:08;5.73;;;4.93;;
11346;SDS011;5728;42.722;23.258;2023-05-10T05:28:36;11.43;;;6.03;;
11346;SDS011;5728;42.722;23.258;2023-05-10T05:31:03;6.00;;;5.40;;
11346;SDS011;5728;42.722;23.258;2023-05-10T05:33:30;7.07;;;6.10;;
11346;SDS011;5728;42.722;23.258;2023-05-10T05:35:57;9.47;;;5.60;;
11346;SDS011;5728;42.722;23.258;2023-05-10T05:38:27;7.23;;;5.67;;
11346;SDS011;5728;42.722;23.258;2023-05-10T05:40:53;7.60;;;6.33;;
11346;SDS011;5728;42.722;23.258;2023-05-10T05:43:20;8.00;;;6.13;;
11346;SDS011;5728;42.722;23.258;2023-05-10T05:45:48;9.30;;;5.83;;
11346;SDS011;5728;42.722;23.258;2023-05-10T05:48:15;7.27;;;5.87;;
11346;SDS011;5728;42.722;23.258;2023-05-10T05:50:42;7.03;;;5.80;;
11346;SDS011;5728;42.722;23.258;2023-05-10T05:53:09;8.93;;;6.70;;
11346;SDS011;5728;42.722;23.258;2023-05-10T05:55:36;8.20;;;6.70;;
11346;SDS011;5728;42.722;23.258;2023-05-10T05:58:02;10.57;;;6.90;;
11346;SDS011;5728;42.722;23.258;2023-05-10T06:00:29;10.13;;;7.63;;
11346;SDS011;5728;42.722;23.258;2023-05-10T06:02:57;8.20;;;6.27;;
11346;SDS011;5728;42.722;23.258;2023-05-10T06:05:24;9.50;;;6.07;;
11346;SDS011;5728;42.722;23.258;2023-05-10T06:07:51;8.17;;;6.53;;
11346;SDS011;5728;42.722;23.258;2023-05-10T06:10:18;10.03;;;6.63;;
11346;SDS011;5728;42.722;23.258;2023-05-10T06:12:45;8.43;;;6.73;;
11346;SDS011;5728;42.722;23.258;2023-05-10T06:15:12;8.50;;;6.50;;
11346;SDS011;5728;42.722;23.258;2023-05-10T06:17:39;8.83;;;6.20;;
11346;SDS011;5728;42.722;23.258;2023-05-10T06:20:09;9.73;;;7.03;;
11346;SDS011;5728;42.722;23.258;2023-05-10T06:22:37;9.27;;;6.83;;
11346;SDS011;5728;42.722;23.258;2023-05-10T06:25:04;10.50;;;7.00;;
11346;SDS011;5728;42.722;23.258;2023-05-10T06:27:32;10.77;;;6.10;;
11346;SDS011;5728;42.722;23.258;2023-05-10T06:29:58;18.60;;;7.43;;
11346;SDS011;5728;42.722;23.258;2023-05-10T06:32:25;9.70;;;6.23;;
11346;SDS011;5728;42.722;23.258;2023-05-10T06:34:52;8.13;;;6.17;;
11346;SDS011;5728;42.722;23.258;2023-05-10T06:37:20;10.60;;;6.63;;
11346;SDS011;5728;42.722;23.258;2023-05-10T06:39:47;9.07;;;7.20;;
11346;SDS011;5728;42.722;23.258;2023-05-10T06:42:14;7.07;;;5.77;;
11346;SDS011;5728;42.722;23.258;2023-05-10T06:44:40;9.07;;;5.80;;
11346;SDS011;5728;42.722;23.258;2023-05-10T06:47:08;6.87;;;5.77;;
11346;SDS011;5728;42.722;23.258;2023-05-10T06:49:35;8.47;;;5.93;;
11346;SDS011;5728;42.722;23.258;2023-05-10T06:52:02;11.67;;;6.40;;
11346;SDS011;5728;42.722;23.258;2023-05-10T06:54:30;8.27;;;5.90;;
11346;SDS011;5728;42.722;23.258;2023-05-10T06:56:57;12.67;;;6.70;;
11346;SDS011;5728;42.722;23.258;2023-05-10T06:59:24;7.40;;;5.70;;
11346;SDS011;5728;42.722;23.258;2023-05-10T07:01:51;9.00;;;6.13;;
11346;SDS011;5728;42.722;23.258;2023-05-10T07:04:19;6.87;;;5.93;;
11346;SDS011;5728;42.722;23.258;2023-05-10T07:06:45;11.70;;;7.10;;
11346;SDS011;5728;42.722;23.258;2023-05-10T07:09:12;12.27;;;6.00;;
11346;SDS011;5728;42.722;23.258;2023-05-10T07:11:41;8.57;;;6.10;;
11346;SDS011;5728;42.722;23.258;2023-05-10T07:14:08;9.00;;;6.27;;
11346;SDS011;5728;42.722;23.258;2023-05-10T07:16:34;8.97;;;6.10;;
11346;SDS011;5728;42.722;23.258;2023-05-10T07:19:01;10.00;;;6.50;;
11346;SDS011;5728;42.722;23.258;2023-05-10T07:21:30;8.20;;;6.03;;
11346;SDS011;5728;42.722;23.258;2023-05-10T07:23:57;8.97;;;6.07;;
11346;SDS011;5728;42.722;23.258;2023-05-10T07:26:25;7.33;;;4.93;;
11346;SDS011;5728;42.722;23.258;2023-05-10T07:28:53;6.80;;;5.23;;
11346;SDS011;5728;42.722;23.258;2023-05-10T07:31:20;7.40;;;6.03;;
11346;SDS011;5728;42.722;23.258;2023-05-10T07:33:47;9.10;;;6.40;;
11346;SDS011;5728;42.722;23.258;2023-05-10T07:36:14;6.53;;;5.90;;
11346;SDS011;5728;42.722;23.258;2023-05-10T07:38:40;9.30;;;6.50;;
11346;SDS011;5728;42.722;23.258;2023-05-10T07:41:07;7.43;;;6.10;;
11346;SDS011;5728;42.722;23.258;2023-05-10T07:43:34;6.67;;;5.93;;
11346;SDS011;5728;42.722;23.258;2023-05-10T07:46:03;7.53;;;6.20;;
11346;SDS011;5728;42.722;23.258;2023-05-10T07:48:31;7.87;;;5.80;;
11346;SDS011;5728;42.722;23.258;2023-05-10T07:50:58;7.73;;;5.57;;
11346;SDS011;5728;42.722;23.258;2023-05-10T07:53:25;8.20;;;6.77;;
11346;SDS011;5728;42.722;23.258;2023-05-10T07:55:53;6.40;;;5.80;;
11346;SDS011;5728;42.722;23.258;2023-05-10T07:58:23;8.57;;;6.00;;
11346;SDS011;5728;42.722;23.258;2023-05-10T08:00:50;9.50;;;6.53;;
11346;SDS011;5728;42.722;23.258;2023-05-10T08:03:18;15.53;;;7.27;;
11346;SDS011;5728;42.722;23.258;2023-05-10T08:05:45;7.93;;;7.13;;
11346;SDS011;5728;42.722;23.258;2023-05-10T08:08:12;10.90;;;6.63;;
11346;SDS011;5728;42.722;23.258;2023-05-10T08:10:39;8.47;;;6.53;;
11346;SDS011;5728;42.722;23.258;2023-05-10T08:13:05;12.90;;;6.30;;
11346;SDS011;5728;42.722;23.258;2023-05-10T08:15:32;11.90;;;8.27;;
11346;SDS011;5728;42.722;23.258;2023-05-10T08:17:59;8.23;;;6.73;;
11346;SDS011;5728;42.722;23.258;2023-05-10T08:20:27;10.03;;;6.50;;
11346;SDS011;5728;42.722;23.258;2023-05-10T08:22:54;7.83;;;6.80;;
11346;SDS011;5728;42.722;23.258;2023-05-10T08:25:20;9.77;;;7.53;;
11346;SDS011;5728;42.722;23.258;2023-05-10T08:27:47;10.70;;;8.10;;
11346;SDS011;5728;42.722;23.258;2023-05-10T08:30:14;7.90;;;7.10;;
11346;SDS011;5728;42.722;23.258;2023-05-10T08:32:40;8.40;;;6.97;;
11346;SDS011;5728;42.722;23.258;2023-05-10T08:35:07;8.70;;;7.23;;
11346;SDS011;5728;42.722;23.258;2023-05-10T08:37:35;8.03;;;7.20;;
11346;SDS011;5728;42.722;23.258;2023-05-10T08:40:02;8.90;;;6.57;;
11346;SDS011;5728;42.722;23.258;2023-05-10T08:42:30;9.90;;;7.27;;
11346;SDS011;5728;42.722;23.258;2023-05-10T08:45:03;8.43;;;7.03;;
11346;SDS011;5728;42.722;23.258;2023-05-10T08:47:34;9.87;;;6.53;;
11346;SDS011;5728;42.722;23.258;2023-05-10T08:50:03;7.47;;;6.30;;
11346;SDS011;5728;42.722;23.258;2023-05-10T08:52:30;6.57;;;5.90;;
11346;SDS011;5728;42.722;23.258;2023-05-10T08:55:00;7.60;;;6.77;;
11346;SDS011;5728;42.722;23.258;2023-05-10T08:57:27;8.50;;;6.97;;
11346;SDS011;5728;42.722;23.258;2023-05-10T08:59:55;11.17;;;7.33;;
11346;SDS011;5728;42.722;23.258;2023-05-10T09:02:22;7.60;;;6.67;;
11346;SDS011;5728;42.722;23.258;2023-05-10T09:04:49;6.30;;;5.70;;
11346;SDS011;5728;42.722;23.258;2023-05-10T09:07:16;8.63;;;5.93;;
11346;SDS011;5728;42.722;23.258;2023-05-10T09:09:43;8.70;;;6.13;;
11346;SDS011;5728;42.722;23.258;2023-05-10T09:12:13;11.87;;;6.63;;
11346;SDS011;5728;42.722;23.258;2023-05-10T09:14:40;9.63;;;6.77;;
11346;SDS011;5728;42.722;23.258;2023-05-10T09:17:09;8.33;;;7.43;;
11346;SDS011;5728;42.722;23.258;2023-05-10T09:19:36;10.03;;;7.10;;
11346;SDS011;5728;42.722;23.258;2023-05-10T09:22:03;9.00;;;6.80;;
11346;SDS011;5728;42.722;23.258;2023-05-10T09:24:30;8.03;;;6.77;;
11346;SDS011;5728;42.722;23.258;2023-05-10T09:26:57;7.87;;;6.30;;
11346;SDS011;5728;42.722;23.258;2023-05-10T09:29:26;7.13;;;6.43;;
11346;SDS011;5728;42.722;23.258;2023-05-10T09:32:05;10.90;;;6.87;;
11346;SDS011;5728;42.722;23.258;2023-05-10T09:34:32;10.77;;;7.50;;
11346;SDS011;5728;42.722;23.258;2023-05-10T09:37:01;8.07;;;7.27;;
11346;SDS011;5728;42.722;23.258;2023-05-10T09:39:32;8.97;;;6.73;;
11346;SDS011;5728;42.722;23.258;2023-05-10T09:42:01;11.67;;;7.10;;
11346;SDS011;5728;42.722;23.258;2023-05-10T09:44:32;10.83;;;6.97;;
11346;SDS011;5728;42.722;23.258;2023-05-10T09:46:59;7.47;;;6.67;;
11346;SDS011;5728;42.722;23.258;2023-05-10T09:49:26;8.00;;;6.10;;
11346;SDS011;5728;42.722;23.258;2023-05-10T09:51:59;8.30;;;6.77;;
11346;SDS011;5728;42.722;23.258;2023-05-10T09:54:27;9.63;;;7.20;;
11346;SDS011;5728;42.722;23.258;2023-05-10T09:56:54;8.10;;;6.60;;
11346;SDS011;5728;42.722;23.258;2023-05-10T09:59:21;8.50;;;6.97;;
11346;SDS011;5728;42.722;23.258;2023-05-10T10:01:52;11.87;;;7.37;;
11346;SDS011;5728;42.722;23.258;2023-05-10T10:04:21;6.33;;;5.73;;
11346;SDS011;5728;42.722;23.258;2023-05-10T10:06:57;13.80;;;6.80;;
11346;SDS011;5728;42.722;23.258;2023-05-10T10:09:25;9.20;;;6.90;;
11346;SDS011;5728;42.722;23.258;2023-05-10T10:11:53;8.83;;;6.27;;
11346;SDS011;5728;42.722;23.258;2023-05-10T10:14:20;8.10;;;6.50;;
11346;SDS011;5728;42.722;23.258;2023-05-10T10:16:48;9.00;;;6.70;;
11346;SDS011;5728;42.722;23.258;2023-05-10T10:19:17;6.77;;;6.07;;
11346;SDS011;5728;42.722;23.258;2023-05-10T10:21:45;7.73;;;6.33;;
11346;SDS011;5728;42.722;23.258;2023-05-10T10:24:12;7.53;;;6.10;;
11346;SDS011;5728;42.722;23.258;2023-05-10T10:26:38;9.07;;;7.13;;
11346;SDS011;5728;42.722;23.258;2023-05-10T10:29:10;10.13;;;7.20;;
11346;SDS011;5728;42.722;23.258;2023-05-10T10:31:45;9.60;;;6.63;;
11346;SDS011;5728;42.722;23.258;2023-05-10T10:34:20;6.97;;;5.50;;
11346;SDS011;5728;42.722;23.258;2023-05-10T10:36:51;11.57;;;6.87;;
11346;SDS011;5728;42.722;23.258;2023-05-10T10:39:18;9.03;;;6.50;;
11346;SDS011;5728;42.722;23.258;2023-05-10T10:41:50;8.47;;;6.57;;
11346;SDS011;5728;42.722;23.258;2023-05-10T10:44:24;8.40;;;6.20;;
11346;SDS011;5728;42.722;23.258;2023-05-10T10:47:02;7.33;;;6.00;;
11346;SDS011;5728;42.722;23.258;2023-05-10T10:49:48;9.43;;;5.93;;
11346;SDS011;5728;42.722;23.258;2023-05-10T10:52:23;6.17;;;5.57;;
11346;SDS011;5728;42.722;23.258;2023-05-10T10:54:56;8.20;;;5.70;;
11346;SDS011;5728;42.722;23.258;2023-05-10T10:57:25;7.77;;;5.23;;
11346;SDS011;5728;42.722;23.258;2023-05-10T10:59:58;8.30;;;5.40;;
11346;SDS011;5728;42.722;23.258;2023-05-10T11:02:45;6.80;;;4.60;;
11346;SDS011;5728;42.722;23.258;2023-05-10T11:08:13;5.20;;;4.70;;
11346;SDS011;5728;42.722;23.258;2023-05-10T11:10:52;8.37;;;5.00;;
11346;SDS011;5728;42.722;23.258;2023-05-10T11:13:29;7.47;;;5.80;;
11346;SDS011;5728;42.722;23.258;2023-05-10T11:15:57;11.53;;;6.00;;
11346;SDS011;5728;42.722;23.258;2023-05-10T11:18:25;5.53;;;5.03;;
11346;SDS011;5728;42.722;23.258;2023-05-10T11:20:56;7.03;;;4.37;;
11346;SDS011;5728;42.722;23.258;2023-05-10T11:23:29;8.47;;;4.93;;
11346;SDS011;5728;42.722;23.258;2023-05-10T11:25:57;7.93;;;5.73;;
11346;SDS011;5728;42.722;23.258;2023-05-10T11:28:25;4.97;;;4.47;;
11346;SDS011;5728;42.722;23.258;2023-05-10T11:30:53;5.70;;;5.03;;
11346;SDS011;5728;42.722;23.258;2023-05-10T11:33:20;5.63;;;4.57;;
11346;SDS011;5728;42.722;23.258;2023-05-10T11:35:47;7.07;;;4.87;;
11346;SDS011;5728;42.722;23.258;2023-05-10T11:38:15;8.70;;;4.77;;
11346;SDS011;5728;42.722;23.258;2023-05-10T11:40:42;5.20;;;4.70;;
11346;SDS011;5728;42.722;23.258;2023-05-10T11:43:09;6.40;;;4.60;;
11346;SDS011;5728;42.722;23.258;2023-05-10T11:45:37;9.23;;;5.40;;
11346;SDS011;5728;42.722;23.258;2023-05-10T11:48:04;6.27;;;4.60;;
11346;SDS011;5728;42.722;23.258;2023-05-10T11:50:31;8.53;;;5.20;;
11346;SDS011;5728;42.722;23.258;2023-05-10T11:52:58;5.73;;;4.47;;
11346;SDS011;5728;42.722;23.258;2023-05-10T11:55:27;6.87;;;4.67;;
11346;SDS011;5728;42.722;23.258;2023-05-10T11:57:55;7.00;;;5.00;;
11346;SDS011;5728;42.722;23.258;2023-05-10T12:00:27;16.27;;;6.20;;
11346;SDS011;5728;42.722;23.258;2023-05-10T12:02:55;6.20;;;4.90;;
11346;SDS011;5728;42.722;23.258;2023-05-10T12:05:22;8.50;;;5.30;;
11346;SDS011;5728;42.722;23.258;2023-05-10T12:07:49;10.63;;;5.83;;
11346;SDS011;5728;42.722;23.258;2023-05-10T12:10:17;8.93;;;5.20;;
11346;SDS011;5728;42.722;23.258;2023-05-10T12:12:52;5.93;;;4.97;;
11346;SDS011;5728;42.722;23.258;2023-05-10T12:15:20;6.33;;;4.80;;
11346;SDS011;5728;42.722;23.258;2023-05-10T12:17:47;7.43;;;4.90;;
11346;SDS011;5728;42.722;23.258;2023-05-10T12:20:16;6.47;;;5.17;;
11346;SDS011;5728;42.722;23.258;2023-05-10T12:22:44;7.60;;;5.33;;
11346;SDS011;5728;42.722;23.258;2023-05-10T12:25:12;9.67;;;5.43;;
11346;SDS011;5728;42.722;23.258;2023-05-10T12:27:39;6.70;;;5.77;;
11346;SDS011;5728;42.722;23.258;2023-05-10T12:30:08;5.83;;;5.20;;
11346;SDS011;5728;42.722;23.258;2023-05-10T12:32:39;6.30;;;5.60;;
11346;SDS011;5728;42.722;23.258;2023-05-10T12:35:07;7.83;;;5.23;;
11346;SDS011;5728;42.722;23.258;2023-05-10T12:37:34;7.23;;;5.33;;
11346;SDS011;5728;42.722;23.258;2023-05-10T12:40:05;11.83;;;5.60;;
11346;SDS011;5728;42.722;23.258;2023-05-10T12:42:34;8.27;;;4.80;;
11346;SDS011;5728;42.722;23.258;2023-05-10T12:45:02;6.40;;;5.40;;
11346;SDS011;5728;42.722;23.258;2023-05-10T12:47:31;6.67;;;5.63;;
11346;SDS011;5728;42.722;23.258;2023-05-10T12:49:59;5.90;;;5.23;;
11346;SDS011;5728;42.722;23.258;2023-05-10T12:52:27;7.00;;;5.43;;
11346;SDS011;5728;42.722;23.258;2023-05-10T12:54:54;7.40;;;5.67;;
11346;SDS011;5728;42.722;23.258;2023-05-10T12:57:21;7.13;;;5.60;;
11346;SDS011;5728;42.722;23.258;2023-05-10T12:59:48;6.13;;;5.40;;
11346;SDS011;5728;42.722;23.258;2023-05-10T13:02:15;7.20;;;5.80;;
11346;SDS011;5728;42.722;23.258;2023-05-10T13:04:44;11.37;;;5.03;;
11346;SDS011;5728;42.722;23.258;2023-05-10T13:07:12;6.27;;;5.30;;
11346;SDS011;5728;42.722;23.258;2023-05-10T13:09:39;8.27;;;5.80;;
11346;SDS011;5728;42.722;23.258;2023-05-10T13:12:06;7.80;;;6.30;;
11346;SDS011;5728;42.722;23.258;2023-05-10T13:14:33;5.80;;;5.17;;
11346;SDS011;5728;42.722;23.258;2023-05-10T13:17:00;10.33;;;5.40;;
11346;SDS011;5728;42.722;23.258;2023-05-10T13:19:26;10.03;;;5.87;;
11346;SDS011;5728;42.722;23.258;2023-05-10T13:21:55;7.70;;;6.03;;
11346;SDS011;5728;42.722;23.258;2023-05-10T13:24:21;8.27;;;5.70;;
11346;SDS011;5728;42.722;23.258;2023-05-10T13:26:48;9.13;;;6.50;;
11346;SDS011;5728;42.722;23.258;2023-05-10T13:29:15;6.60;;;5.77;;
11346;SDS011;5728;42.722;23.258;2023-05-10T13:31:43;15.17;;;5.63;;
11346;SDS011;5728;42.722;23.258;2023-05-10T13:34:09;8.10;;;6.23;;
11346;SDS011;5728;42.722;23.258;2023-05-10T13:36:36;10.67;;;6.50;;
11346;SDS011;5728;42.722;23.258;2023-05-10T13:39:04;7.20;;;6.17;;
11346;SDS011;5728;42.722;23.258;2023-05-10T13:41:31;8.83;;;5.40;;
11346;SDS011;5728;42.722;23.258;2023-05-10T13:43:58;6.07;;;5.30;;
11346;SDS011;5728;42.722;23.258;2023-05-10T13:46:25;16.97;;;6.10;;
11346;SDS011;5728;42.722;23.258;2023-05-10T13:48:51;7.70;;;5.53;;
11346;SDS011;5728;42.722;23.258;2023-05-10T13:51:18;6.90;;;5.40;;
11346;SDS011;5728;42.722;23.258;2023-05-10T13:53:45;5.67;;;5.03;;
11346;SDS011;5728;42.722;23.258;2023-05-10T13:59:09;6.93;;;4.97;;
11346;SDS011;5728;42.722;23.258;2023-05-10T14:01:35;6.27;;;5.60;;
11346;SDS011;5728;42.722;23.258;2023-05-10T14:04:02;6.37;;;4.53;;
11346;SDS011;5728;42.722;23.258;2023-05-10T14:06:29;7.23;;;5.80;;
11346;SDS011;5728;42.722;23.258;2023-05-10T14:08:56;9.77;;;5.03;;
11346;SDS011;5728;42.722;23.258;2023-05-10T14:11:23;9.50;;;5.70;;
11346;SDS011;5728;42.722;23.258;2023-05-10T14:13:51;7.57;;;5.80;;
11346;SDS011;5728;42.722;23.258;2023-05-10T14:16:18;7.57;;;5.67;;
11346;SDS011;5728;42.722;23.258;2023-05-10T14:18:45;8.53;;;5.10;;
11346;SDS011;5728;42.722;23.258;2023-05-10T14:21:12;7.17;;;5.10;;
11346;SDS011;5728;42.722;23.258;2023-05-10T14:23:38;6.53;;;5.17;;
11346;SDS011;5728;42.722;23.258;2023-05-10T14:26:05;10.07;;;5.87;;
11346;SDS011;5728;42.722;23.258;2023-05-10T14:28:32;6.70;;;5.50;;
11346;SDS011;5728;42.722;23.258;2023-05-10T14:31:01;7.63;;;5.83;;
11346;SDS011;5728;42.722;23.258;2023-05-10T14:33:28;13.20;;;5.20;;
11346;SDS011;5728;42.722;23.258;2023-05-10T14:35:54;7.93;;;5.20;;
11346;SDS011;5728;42.722;23.258;2023-05-10T14:38:22;6.80;;;6.00;;
11346;SDS011;5728;42.722;23.258;2023-05-10T14:40:49;6.57;;;5.87;;
11346;SDS011;5728;42.722;23.258;2023-05-10T14:43:15;11.20;;;5.80;;
11346;SDS011;5728;42.722;23.258;2023-05-10T14:45:42;8.60;;;5.57;;
11346;SDS011;5728;42.722;23.258;2023-05-10T14:48:11;7.20;;;5.80;;
11346;SDS011;5728;42.722;23.258;2023-05-10T14:50:40;9.23;;;5.80;;
11346;SDS011;5728;42.722;23.258;2023-05-10T14:56:04;7.10;;;5.97;;
11346;SDS011;5728;42.722;23.258;2023-05-10T14:58:32;12.53;;;5.87;;
11346;SDS011;5728;42.722;23.258;2023-05-10T15:00:58;7.57;;;5.57;;
11346;SDS011;5728;42.722;23.258;2023-05-10T15:03:27;10.27;;;6.57;;